Time;durP1;ratioP1;P1;durP2;ratioP2;P2;SDS_P1;SDS_P2;PMS_P1;PMS_P2;Temp;Humidity;BMP_temperature;BMP_pressure;BME280_temperature;BME280_humidity;BME280_pressure;Samples;Min_cycle;Max_cycle;Signal;HPM_P1;HPM_P2
2022/09/20 00:04:54;;;;;;;3.35;1.50;;;;;;;9.69;100.00;100056.69;10542279;28;20165;-69
2022/09/20 00:09:56;;;;;;;3.05;1.30;;;;;;;9.60;100.00;100051.69;10546981;28;20040;-69
2022/09/20 00:14:58;;;;;;;2.20;1.25;;;;;;;9.55;100.00;100054.44;10546290;28;20052;-69
2022/09/20 00:20:00;;;;;;;2.72;1.45;;;;;;;9.71;100.00;100054.91;10545591;28;20047;-69
2022/09/20 00:25:01;;;;;;;2.35;1.08;;;;;;;9.70;100.00;100055.81;10545300;28;20043;-69
2022/09/20 00:30:04;;;;;;;1.30;1.23;;;;;;;9.77;100.00;100046.00;10527460;28;20498;-69
2022/09/20 00:35:07;;;;;;;2.22;1.73;;;;;;;9.71;100.00;100046.16;10544639;28;20048;-69
2022/09/20 00:40:15;;;;;;;2.42;2.08;;;;;;;9.57;100.00;100039.53;10544224;28;20040;-70
2022/09/20 00:45:23;;;;;;;3.83;2.20;;;;;;;9.55;100.00;100041.34;10544297;28;20405;-69
2022/09/20 00:50:46;;;;;;;4.43;2.08;;;;;;;9.63;100.00;100042.91;10544932;28;20077;-70
2022/09/20 00:55:55;;;;;;;3.50;1.40;;;;;;;9.73;100.00;100039.09;10544081;28;20074;-70
2022/09/20 01:00:58;;;;;;;1.98;1.30;;;;;;;9.73;100.00;100049.59;10544056;28;20093;-69
2022/09/20 01:06:05;;;;;;;1.65;1.42;;;;;;;9.76;100.00;100039.88;10525656;28;20073;-69
2022/09/20 01:11:07;;;;;;;2.80;1.20;;;;;;;9.76;100.00;100044.28;10525577;28;20059;-70
2022/09/20 01:16:10;;;;;;;2.00;1.23;;;;;;;9.62;100.00;100056.94;10541974;28;20040;-70
2022/09/20 01:21:13;;;;;;;2.90;1.15;;;;;;;9.64;100.00;100045.47;10542930;28;20135;-70
2022/09/20 01:26:37;;;;;;;2.08;1.38;;;;;;;9.68;100.00;100041.00;10555522;22;20058;-75
2022/09/20 01:31:52;;;;;;;2.17;1.63;;;;;;;9.77;100.00;100043.38;10543479;28;20105;-75
2022/09/20 01:37:01;;;;;;;1.67;1.35;;;;;;;9.69;100.00;100040.09;10542423;28;20039;-75
2022/09/20 01:42:13;;;;;;;1.95;1.20;;;;;;;9.73;100.00;100041.72;10542253;28;20075;-74
2022/09/20 01:47:20;;;;;;;2.17;1.25;;;;;;;9.67;100.00;100040.16;10541999;28;20079;-75
2022/09/20 01:53:09;;;;;;;2.20;1.55;;;;;;;9.72;100.00;100045.25;10542983;28;20052;-74
2022/09/20 01:58:11;;;;;;;3.58;1.20;;;;;;;9.75;100.00;100046.03;10523830;28;20102;-75
2022/09/20 02:03:41;;;;;;;1.58;1.17;;;;;;;9.67;100.00;100048.03;10542789;28;20044;-74
2022/09/20 02:09:30;;;;;;;2.78;1.25;;;;;;;9.73;100.00;100044.34;10534019;28;20135;-74
2022/09/20 02:14:57;;;;;;;2.13;1.40;;;;;;;9.64;100.00;100047.25;10371496;28;20069;-74
2022/09/20 02:20:08;;;;;;;3.08;1.35;;;;;;;9.60;100.00;100038.59;10372259;28;20467;-74
2022/09/20 02:25:15;;;;;;;1.98;1.23;;;;;;;9.57;100.00;100049.19;10374185;28;20094;-74
2022/09/20 02:30:38;;;;;;;3.55;1.40;;;;;;;9.57;100.00;100047.41;10371452;28;20057;-74
2022/09/20 02:36:08;;;;;;;3.13;1.70;;;;;;;9.38;100.00;100046.16;10363376;28;20065;-74
2022/09/20 02:41:22;;;;;;;2.45;1.80;;;;;;;9.42;100.00;100046.97;10371401;28;20107;-74
2022/09/20 02:46:35;;;;;;;2.17;1.58;;;;;;;9.51;100.00;100051.94;10538799;28;20040;-74
2022/09/20 02:51:59;;;;;;;2.75;1.70;;;;;;;9.54;100.00;100054.50;10522163;28;20102;-74
2022/09/20 02:57:28;;;;;;;4.28;2.17;;;;;;;9.56;100.00;100060.56;10541417;28;20072;-74
2022/09/20 03:02:56;;;;;;;2.30;1.88;;;;;;;9.46;100.00;100065.19;10540885;28;20044;-74
2022/09/20 03:08:19;;;;;;;2.15;1.52;;;;;;;9.49;100.00;100059.88;10504919;28;20052;-74
2022/09/20 03:13:49;;;;;;;3.05;1.52;;;;;;;9.33;100.00;100062.03;10539747;28;20127;-74
2022/09/20 03:19:16;;;;;;;3.35;1.50;;;;;;;9.35;100.00;100064.63;10521337;28;20040;-74
2022/09/20 03:24:53;;;;;;;2.28;1.30;;;;;;;9.26;100.00;100070.13;10539897;28;20093;-73
2022/09/20 03:30:09;;;;;;;4.28;2.00;;;;;;;9.18;100.00;100074.69;10521547;28;20055;-75
2022/09/20 03:35:58;;;;;;;2.35;1.80;;;;;;;9.06;100.00;100074.09;10522375;28;20044;-74
2022/09/20 03:41:12;;;;;;;2.67;1.50;;;;;;;9.22;100.00;100071.09;10537708;28;20071;-74
2022/09/20 03:46:28;;;;;;;2.63;1.52;;;;;;;9.09;100.00;100074.03;10548158;28;20044;-75
2022/09/20 03:52:01;;;;;;;2.75;1.67;;;;;;;9.02;100.00;100076.84;10529884;28;20404;-75
2022/09/20 03:57:08;;;;;;;3.10;2.13;;;;;;;9.03;100.00;100076.81;10546783;28;20032;-74
2022/09/20 04:02:18;;;;;;;4.32;3.03;;;;;;;8.98;100.00;100086.53;10547277;28;20421;-74
2022/09/20 04:07:42;;;;;;;4.43;2.90;;;;;;;8.99;100.00;100090.91;10529297;28;20086;-74
2022/09/20 04:13:08;;;;;;;2.92;2.33;;;;;;;9.17;100.00;100101.84;10547093;28;20047;-74
2022/09/20 04:18:58;;;;;;;4.30;4.00;;;;;;;9.16;100.00;100098.31;10527893;28;20048;-74
2022/09/20 04:24:09;;;;;;;6.60;6.10;;;;;;;9.17;100.00;100096.59;10516694;28;20056;-75
2022/09/20 04:29:29;;;;;;;8.48;5.45;;;;;;;9.20;100.00;100099.97;10545575;28;20109;-74
2022/09/20 04:40:03;;;;;;;6.50;5.90;;;;;;;9.28;100.00;100111.13;10545930;28;20543;-74
2022/09/20 04:45:08;;;;;;;6.03;5.07;;;;;;;9.19;100.00;100113.13;10526881;28;20294;-75
2022/09/20 04:50:12;;;;;;;5.65;5.07;;;;;;;9.21;100.00;100117.47;10544036;28;20119;-74
2022/09/20 04:55:20;;;;;;;7.00;4.10;;;;;;;9.37;100.00;100123.16;10544420;28;20055;-74
2022/09/20 05:00:23;;;;;;;6.60;3.47;;;;;;;9.32;100.00;100127.66;10526380;28;20052;-74
2022/09/20 05:05:30;;;;;;;8.15;3.53;;;;;;;9.18;100.00;100127.16;10543440;28;20047;-74
2022/09/20 05:10:57;;;;;;;3.92;2.95;;;;;;;9.24;100.00;100127.00;10543194;28;20119;-74
2022/09/20 05:16:17;;;;;;;5.72;4.50;;;;;;;9.12;100.00;100135.16;10543579;28;20039;-75
2022/09/20 05:21:28;;;;;;;5.93;4.18;;;;;;;9.39;100.00;100139.75;10543925;28;20115;-74
2022/09/20 05:26:47;;;;;;;5.88;5.05;;;;;;;9.30;100.00;100137.34;10525206;28;20047;-74
2022/09/20 05:31:59;;;;;;;10.88;8.15;;;;;;;9.11;100.00;100152.66;10542444;28;20089;-74
2022/09/20 05:37:05;;;;;;;11.40;8.68;;;;;;;9.18;100.00;100153.38;10543024;28;20044;-74
2022/09/20 05:42:19;;;;;;;9.52;8.63;;;;;;;9.16;100.00;100160.41;10543553;28;20044;-74
2022/09/20 05:47:52;;;;;;;10.85;9.75;;;;;;;9.13;100.00;100160.50;10542844;28;20040;-74
2022/09/20 05:53:31;;;;;;;11.35;10.30;;;;;;;9.20;100.00;100167.31;10524085;28;20573;-74
2022/09/20 05:58:53;;;;;;;10.20;9.20;;;;;;;9.33;100.00;100172.22;10542181;28;20032;-74
2022/09/20 06:04:19;;;;;;;6.35;5.75;;;;;;;9.66;100.00;100177.53;10542824;28;20047;-75
2022/09/20 06:09:28;;;;;;;;;;;;;;;9.58;100.00;100176.88;10543711;28;20094;-74
2022/09/20 06:15:01;;;;;;;4.65;4.25;;;;;;;9.51;100.00;100191.88;10525357;28;19942;-75
2022/09/20 06:20:32;;;;;;;7.05;4.53;;;;;;;9.39;100.00;100180.88;10509702;28;20125;-76
2022/09/20 06:25:43;;;;;;;4.28;3.78;;;;;;;9.64;100.00;100183.72;10543167;28;20044;-74
2022/09/20 06:30:54;;;;;;;4.18;3.78;;;;;;;10.07;100.00;100184.31;10541975;28;20470;-75
2022/09/20 06:41:25;;;;;;;7.30;5.47;;;;;;;10.06;100.00;100184.34;10541674;28;20047;-74
2022/09/20 06:41:27;;;;;;;7.25;6.65;;;;;;;9.99;100.00;100182.78;10540867;28;20044;-74
2022/09/20 06:46:33;;;;;;;11.50;7.20;;;;;;;10.18;100.00;100186.66;10543607;28;20035;-74
2022/09/20 06:51:37;;;;;;;6.30;5.55;;;;;;;10.25;100.00;100197.88;10541978;28;20044;-75
2022/09/20 06:56:39;;;;;;;8.13;6.07;;;;;;;10.41;100.00;100193.06;10541195;28;20124;-74
2022/09/20 07:01:42;;;;;;;9.45;5.32;;;;;;;10.40;100.00;100202.69;10523654;28;20048;-75
2022/09/20 07:06:43;;;;;;;11.32;5.35;;;;;;;10.67;98.78;100202.78;10541732;28;20170;-74
2022/09/20 07:11:45;;;;;;;7.82;5.75;;;;;;;10.81;97.42;100214.66;10541277;28;20048;-74
2022/09/20 07:16:47;;;;;;;7.45;5.18;;;;;;;10.66;99.47;100207.19;10531579;28;20452;-74
2022/09/20 07:21:48;;;;;;;8.65;6.38;;;;;;;10.62;99.30;100221.34;10532109;28;20060;-74
2022/09/20 07:26:56;;;;;;;13.93;6.50;;;;;;;10.76;99.41;100226.22;10549264;28;20044;-73
2022/09/20 07:31:57;;;;;;;8.63;7.43;;;;;;;10.46;100.00;100226.19;10548169;28;20074;-74
2022/09/20 07:36:59;;;;;;;9.50;7.13;;;;;;;10.37;100.00;100241.34;10530675;28;20048;-74
2022/09/20 07:42:05;;;;;;;11.27;8.27;;;;;;;10.57;100.00;100246.88;10547780;28;20040;-74
2022/09/20 07:47:08;;;;;;;11.15;8.55;;;;;;;11.03;100.00;100238.53;10547805;28;20068;-74
2022/09/20 07:52:10;;;;;;;11.25;8.88;;;;;;;11.00;100.00;100256.16;10547173;28;20055;-74
2022/09/20 07:57:12;;;;;;;10.85;7.70;;;;;;;11.02;96.82;100256.97;10546322;28;20444;-74
2022/09/20 08:02:15;;;;;;;7.50;6.72;;;;;;;10.86;97.11;100260.06;10512636;28;20366;-74
2022/09/20 08:07:17;;;;;;;9.27;8.15;;;;;;;10.77;99.35;100264.75;10546317;28;20066;-75
2022/09/20 08:12:19;;;;;;;7.40;6.75;;;;;;;10.94;97.07;100265.13;10547995;28;20046;-75
2022/09/20 08:17:40;;;;;;;8.98;6.68;;;;;;;10.84;97.38;100267.13;10527475;28;20462;-75
2022/09/20 08:22:42;;;;;;;7.22;5.90;;;;;;;10.93;95.87;100258.09;10546714;28;20055;-75
2022/09/20 08:27:44;;;;;;;8.88;7.10;;;;;;;10.68;97.27;100268.50;10544927;28;20123;-75
2022/09/20 08:32:45;;;;;;;7.47;6.82;;;;;;;10.76;99.43;100269.13;10545493;28;20097;-75
2022/09/20 08:37:47;;;;;;;9.50;6.20;;;;;;;10.98;97.52;100277.28;10545168;28;20040;-75
2022/09/20 08:42:49;;;;;;;7.43;6.50;;;;;;;10.70;96.97;100271.94;10544725;28;20093;-75
2022/09/20 08:47:55;;;;;;;5.97;4.60;;;;;;;10.97;93.45;100275.53;10545192;28;20048;-75
2022/09/20 08:53:04;;;;;;;5.28;3.85;;;;;;;11.04;91.36;100284.97;10545941;28;20051;-74
2022/09/20 08:58:09;;;;;;;4.80;4.00;;;;;;;11.06;90.45;100285.78;10544893;28;20590;-75
2022/09/20 09:03:13;;;;;;;4.50;3.47;;;;;;;11.06;90.73;100295.44;10544306;28;20093;-76
2022/09/20 09:08:26;;;;;;;3.95;3.60;;;;;;;10.86;95.75;100293.41;10544061;28;20040;-75
2022/09/20 09:13:40;;;;;;;5.90;4.65;;;;;;;10.64;99.97;100297.53;10544077;28;20047;-75
2022/09/20 09:18:44;;;;;;;6.00;5.35;;;;;;;10.77;100.00;100291.03;10543160;28;20074;-75
2022/09/20 09:23:52;;;;;;;6.07;5.50;;;;;;;10.96;100.00;100296.63;10526599;28;20085;-76
2022/09/20 09:29:14;;;;;;;5.70;5.10;;;;;;;11.47;95.96;100285.44;10544228;28;20453;-76
2022/09/20 09:34:32;;;;;;;6.25;5.43;;;;;;;11.36;99.87;100283.13;10543148;28;20052;-75
2022/09/20 09:39:37;;;;;;;5.32;3.80;;;;;;;11.19;97.57;100298.56;10541150;28;20051;-76
2022/09/20 09:44:38;;;;;;;5.47;4.32;;;;;;;11.30;99.50;100296.47;10525884;28;20519;-76
2022/09/20 09:49:55;;;;;;;5.43;3.47;;;;;;;11.42;98.35;100293.47;10533528;28;20489;-74
2022/09/20 09:55:03;;;;;;;9.93;3.95;;;;;;;11.51;99.91;100303.72;10542103;28;20048;-76
2022/09/20 10:00:12;;;;;;;5.45;4.18;;;;;;;11.78;95.17;100306.38;10507141;28;20097;-76
2022/09/20 10:05:46;;;;;;;4.18;3.53;;;;;;;12.67;88.25;100303.38;10525145;28;20055;-76
2022/09/20 10:10:51;;;;;;;;;;;;;;;12.36;82.62;100305.31;10542121;28;20040;-75
2022/09/20 10:16:16;;;;;;;4.72;2.65;;;;;;;12.09;87.57;100317.66;10541268;28;19947;-76
2022/09/20 10:22:03;;;;;;;4.07;2.38;;;;;;;12.37;83.41;100304.41;10523369;28;20040;-76
2022/09/20 10:27:13;;;;;;;4.07;2.67;;;;;;;12.59;87.11;100303.66;10536916;28;20054;-76
2022/09/20 10:32:36;;;;;;;4.50;2.25;;;;;;;12.73;83.89;100308.44;10540808;28;20065;-76
2022/09/20 10:38:02;;;;;;;4.60;2.63;;;;;;;12.50;83.53;100318.03;10522371;28;20040;-76
2022/09/20 10:43:16;;;;;;;3.30;2.15;;;;;;;12.84;82.17;100314.19;10522326;28;20135;-76
2022/09/20 10:48:31;;;;;;;6.57;2.10;;;;;;;13.35;77.00;100308.72;10540260;28;20040;-76
2022/09/20 10:53:36;;;;;;;4.55;2.20;;;;;;;13.55;78.19;100312.41;10522192;28;20048;-76
2022/09/20 10:58:44;;;;;;;3.88;1.45;;;;;;;14.11;75.63;100299.47;10541006;28;20040;-76
2022/09/20 11:04:07;;;;;;;4.07;1.75;;;;;;;13.68;74.34;100305.69;10540712;28;20040;-76
2022/09/20 11:09:17;;;;;;;2.42;1.70;;;;;;;13.67;74.98;100311.03;10540521;28;20052;-75
2022/09/20 11:14:28;;;;;;;3.40;1.40;;;;;;;13.66;74.21;100311.94;10540469;28;20070;-75
2022/09/20 11:19:59;;;;;;;0.88;0.70;;;;;;;13.55;68.05;100313.25;10540654;28;20044;-76
2022/09/20 11:25:24;;;;;;;0.85;0.70;;;;;;;13.81;70.72;100317.50;10514597;28;20059;-76
2022/09/20 11:30:35;;;;;;;4.15;1.45;;;;;;;13.58;73.55;100320.16;10521504;28;20119;-76
2022/09/20 11:35:53;;;;;;;2.70;1.42;;;;;;;13.52;71.56;100316.00;10538964;28;20047;-76
2022/09/20 11:41:10;;;;;;;2.97;1.33;;;;;;;14.01;70.69;100319.31;10539350;28;20070;-75
2022/09/20 11:46:20;;;;;;;2.60;1.40;;;;;;;14.18;70.52;100318.59;10522623;28;20114;-76
2022/09/20 11:51:53;;;;;;;2.95;1.75;;;;;;;14.32;71.00;100313.59;10541042;28;20467;-75
2022/09/20 11:56:56;;;;;;;1.90;1.40;;;;;;;14.54;68.79;100318.00;10522234;28;20044;-75
2022/09/20 12:02:01;;;;;;;4.20;1.63;;;;;;;14.82;63.45;100301.75;10526825;28;20102;-75
2022/09/20 12:07:16;;;;;;;1.50;0.98;;;;;;;14.66;62.49;100311.31;10546996;28;20046;-76
2022/09/20 12:12:36;;;;;;;2.15;0.98;;;;;;;14.52;62.73;100309.25;10529018;28;20081;-75
2022/09/20 12:17:47;;;;;;;1.80;1.00;;;;;;;14.52;62.02;100302.19;10547512;28;20047;-76
2022/09/20 12:22:49;;;;;;;2.10;0.90;;;;;;;14.83;64.26;100292.88;10528845;28;20044;-75
2022/09/20 12:27:52;;;;;;;1.10;0.88;;;;;;;14.17;61.96;100311.59;10527837;28;20048;-76
2022/09/20 12:32:57;;;;;;;2.10;0.90;;;;;;;13.60;64.26;100308.63;10546346;28;20044;-75
2022/09/20 12:38:15;;;;;;;1.38;1.20;;;;;;;13.25;70.65;100306.53;10545768;28;20043;-75
2022/09/20 12:43:21;;;;;;;2.70;1.00;;;;;;;12.76;68.03;100305.69;10546059;28;20444;-75
2022/09/20 12:48:23;;;;;;;1.75;0.90;;;;;;;12.87;70.13;100304.34;10527511;28;20107;-77
2022/09/20 12:53:25;;;;;;;2.75;1.13;;;;;;;13.11;74.26;100297.31;10546242;28;20054;-76
2022/09/20 12:58:50;;;;;;;4.22;1.35;;;;;;;13.11;74.28;100294.69;10545641;28;20513;-76
2022/09/20 13:03:52;;;;;;;2.22;1.50;;;;;;;13.38;75.15;100299.84;10546743;28;20429;-76
2022/09/20 13:09:08;;;;;;;3.25;1.40;;;;;;;13.78;69.24;100306.19;10545646;28;20044;-76
2022/09/20 13:14:15;;;;;;;2.53;1.52;;;;;;;13.50;71.11;100304.66;10546283;28;20044;-76
2022/09/20 13:19:16;;;;;;;3.17;1.23;;;;;;;13.60;70.81;100313.94;10527865;28;20055;-76
2022/09/20 13:24:19;;;;;;;2.95;1.33;;;;;;;13.75;68.28;100301.88;10545135;28;20051;-75
2022/09/20 13:29:36;;;;;;;2.63;1.00;;;;;;;13.82;69.96;100313.91;10526268;28;20070;-74
2022/09/20 13:34:38;;;;;;;3.72;0.70;;;;;;;13.88;67.37;100305.72;10544893;28;20040;-75
2022/09/20 13:39:40;;;;;;;1.90;0.68;;;;;;;14.07;64.21;100308.47;10544948;28;20042;-73
2022/09/20 13:44:42;;;;;;;3.47;0.70;;;;;;;14.28;65.81;100309.34;10504912;28;20413;-75
2022/09/20 13:49:44;;;;;;;1.63;0.60;;;;;;;14.66;59.97;100306.88;10501611;28;20048;-74
2022/09/20 13:54:47;;;;;;;2.35;0.80;;;;;;;14.91;57.59;100305.75;10501936;28;20048;-73
2022/09/20 13:59:49;;;;;;;1.17;0.47;;;;;;;14.96;59.27;100309.06;10501241;28;20044;-74
2022/09/20 14:04:54;;;;;;;1.00;0.30;;;;;;;14.40;54.78;100342.34;10502041;28;20453;-76
2022/09/20 14:09:57;;;;;;;1.38;0.50;;;;;;;13.18;55.55;100348.06;10501846;28;20036;-75
2022/09/20 14:15:09;;;;;;;0.43;0.38;;;;;;;12.63;58.81;100361.50;10501618;28;20144;-75
2022/09/20 14:20:15;;;;;;;0.45;0.30;;;;;;;12.25;64.60;100369.84;10520568;28;20093;-75
2022/09/20 14:25:20;;;;;;;0.63;0.30;;;;;;;11.92;71.26;100383.22;10542371;28;20044;-74
2022/09/20 14:30:33;;;;;;;0.63;0.40;;;;;;;11.68;74.18;100394.47;10542656;28;20047;-75
2022/09/20 14:35:35;;;;;;;0.88;0.50;;;;;;;11.18;77.82;100387.16;10524372;28;20068;-73
2022/09/20 14:40:44;;;;;;;1.23;0.60;;;;;;;11.06;81.24;100375.22;10540472;28;20043;-72
2022/09/20 14:45:53;;;;;;;3.15;0.80;;;;;;;10.90;83.05;100358.16;10541394;28;20048;-74
2022/09/20 14:51:24;;;;;;;2.60;2.40;;;;;;;10.65;85.00;100347.44;10541788;28;20051;-74
2022/09/20 14:56:38;;;;;;;2.35;1.58;;;;;;;10.58;92.05;100341.50;10331413;28;20058;-74
2022/09/20 15:01:44;;;;;;;2.83;0.90;;;;;;;10.65;91.47;100336.06;10331147;28;20131;-74
2022/09/20 15:06:47;;;;;;;1.00;0.60;;;;;;;10.68;92.00;100343.88;10316880;28;20061;-75
2022/09/20 15:12:19;;;;;;;2.25;0.70;;;;;;;10.66;90.53;100356.19;10330896;28;20054;-74
2022/09/20 15:17:21;;;;;;;1.85;0.90;;;;;;;10.80;90.81;100356.66;10171661;29;20063;-75
2022/09/20 15:22:22;;;;;;;1.40;0.98;;;;;;;10.69;91.65;100356.97;10172517;29;20112;-73
2022/09/20 15:27:24;;;;;;;0.85;0.68;;;;;;;10.61;91.56;100366.81;10172210;29;20599;-74
2022/09/20 15:32:29;;;;;;;3.45;1.25;;;;;;;10.67;91.76;100365.78;10289354;28;20066;-74
2022/09/20 15:37:30;;;;;;;1.20;0.80;;;;;;;10.39;98.09;100368.28;10378654;28;20065;-74
2022/09/20 15:42:36;;;;;;;2.22;1.10;;;;;;;10.31;100.00;100374.63;10380686;28;20147;-74
2022/09/20 15:47:39;;;;;;;4.85;1.10;;;;;;;10.27;98.68;100382.59;10364202;28;20112;-75
2022/09/20 15:52:41;;;;;;;2.80;1.30;;;;;;;10.25;98.19;100379.16;10457677;28;20052;-74
2022/09/20 15:57:43;;;;;;;2.30;1.23;;;;;;;10.32;97.03;100383.38;10549560;28;20524;-74
2022/09/20 16:02:48;;;;;;;2.03;1.45;;;;;;;10.33;98.59;100383.31;10550308;28;20073;-74
2022/09/20 16:07:50;;;;;;;1.95;1.50;;;;;;;10.24;98.92;100383.53;10549826;28;20036;-74
2022/09/20 16:12:52;;;;;;;1.52;1.10;;;;;;;10.24;100.00;100385.28;10531434;28;20048;-75
2022/09/20 16:23:14;;;;;;;1.77;1.35;;;;;;;10.16;100.00;100395.97;10530935;28;20135;-75
2022/09/20 16:28:16;;;;;;;2.55;1.48;;;;;;;10.22;100.00;100405.47;10548217;28;20045;-75
2022/09/20 16:33:17;;;;;;;2.60;1.80;;;;;;;10.06;100.00;100407.59;10528668;28;20055;-73
2022/09/20 16:38:19;;;;;;;3.05;1.90;;;;;;;9.96;100.00;100413.94;10529152;28;20044;-74
2022/09/20 16:43:25;;;;;;;2.75;1.70;;;;;;;9.93;100.00;100425.41;10547736;28;20111;-74
2022/09/20 16:48:29;;;;;;;3.83;2.30;;;;;;;10.08;100.00;100430.28;10527562;28;20040;-73
2022/09/20 16:53:30;;;;;;;5.85;2.97;;;;;;;10.15;100.00;100422.28;10545420;28;20052;-73
2022/09/20 16:58:34;;;;;;;5.15;2.60;;;;;;;10.31;100.00;100431.53;10545102;28;20485;-73
2022/09/20 17:03:39;;;;;;;3.38;3.08;;;;;;;10.21;97.33;100444.00;10552688;28;20044;-74
2022/09/20 17:08:43;;;;;;;6.68;6.03;;;;;;;10.09;100.00;100458.31;10534032;28;20054;-73
2022/09/20 17:13:46;;;;;;;3.15;2.00;;;;;;;9.99;100.00;100498.78;10533110;28;20048;-74
2022/09/20 17:18:57;;;;;;;3.38;2.90;;;;;;;10.20;99.79;100502.72;10548329;28;20110;-73
2022/09/20 17:23:59;;;;;;;3.30;3.00;;;;;;;10.49;99.71;100499.44;10553383;28;20055;-74
2022/09/20 17:29:05;;;;;;;2.60;2.40;;;;;;;10.49;96.81;100501.19;10552020;28;20113;-73
2022/09/20 17:34:09;;;;;;;1.40;0.85;;;;;;;10.57;89.20;100499.25;10532186;28;20052;-74
2022/09/20 17:39:13;;;;;;;1.20;1.10;;;;;;;10.29;93.44;100501.66;10531325;28;20094;-73
2022/09/20 17:44:15;;;;;;;1.55;0.80;;;;;;;10.50;91.51;100503.78;10550719;28;20039;-72
2022/09/20 17:49:21;;;;;;;0.93;0.93;;;;;;;10.53;90.20;100511.59;10522764;28;20044;-73
2022/09/20 17:54:23;;;;;;;1.23;0.85;;;;;;;10.48;92.04;100512.59;10547258;28;20504;-73
2022/09/20 17:59:25;;;;;;;1.55;1.05;;;;;;;10.37;95.64;100506.75;10542753;28;20153;-73
2022/09/20 18:04:26;;;;;;;1.30;1.20;;;;;;;10.23;96.73;100512.31;10543572;28;20105;-72
2022/09/20 18:09:28;;;;;;;2.58;1.83;;;;;;;10.08;100.00;100529.25;10542823;28;20048;-74
2022/09/20 18:14:31;;;;;;;3.15;2.25;;;;;;;10.22;99.40;100523.69;10542083;28;20070;-73
2022/09/20 18:19:33;;;;;;;2.78;2.40;;;;;;;10.31;98.05;100521.78;10543644;28;20142;-74
2022/09/20 18:24:34;;;;;;;3.55;2.88;;;;;;;10.26;99.43;100536.75;10541557;28;20048;-73
2022/09/20 18:29:36;;;;;;;3.38;3.08;;;;;;;10.10;100.00;100537.97;10541764;28;20055;-73
2022/09/20 18:34:38;;;;;;;3.00;2.80;;;;;;;10.25;98.55;100542.03;10542795;28;20478;-73
2022/09/20 18:39:39;;;;;;;3.25;2.72;;;;;;;10.09;100.00;100545.00;10542495;28;20036;-73
2022/09/20 18:44:42;;;;;;;3.05;2.38;;;;;;;9.85;100.00;100546.34;10542588;28;20440;-74
2022/09/20 18:49:44;;;;;;;2.90;2.38;;;;;;;9.68;100.00;100552.84;10541079;28;20089;-73
2022/09/20 18:54:45;;;;;;;2.60;2.40;;;;;;;9.63;100.00;100563.44;10541948;28;20047;-73
2022/09/20 18:59:47;;;;;;;3.15;2.72;;;;;;;9.62;100.00;100563.47;10522238;28;20036;-74
2022/09/20 19:05:48;;;;;;;3.10;2.45;;;;;;;9.84;100.00;100567.41;10542606;28;20044;-74
2022/09/20 19:10:56;;;;;;;3.33;2.30;;;;;;;9.77;100.00;100568.41;10337893;28;20062;-73
2022/09/20 19:16:03;;;;;;;2.78;1.83;;;;;;;9.86;98.65;100584.84;10341210;28;20104;-74
2022/09/20 19:21:16;;;;;;;2.45;2.00;;;;;;;9.94;95.78;100581.22;10324209;28;20050;-73
2022/09/20 19:26:23;;;;;;;3.03;2.72;;;;;;;9.88;96.11;100578.72;10397579;22;20044;-70
2022/09/20 19:31:27;;;;;;;3.20;2.90;;;;;;;9.82;96.25;100591.03;10506348;28;20040;-69
2022/09/20 19:37:02;;;;;;;2.75;2.50;;;;;;;9.84;94.80;100589.28;10505918;28;20048;-69
2022/09/20 19:42:13;;;;;;;1.77;1.60;;;;;;;9.90;93.92;100593.53;10488194;28;20577;-69
2022/09/20 19:47:24;;;;;;;4.03;2.33;;;;;;;9.71;95.82;100605.31;10506875;28;20048;-70
2022/09/20 19:52:25;;;;;;;2.25;2.10;;;;;;;9.66;97.77;100612.41;10504852;28;20048;-69
2022/09/20 19:57:38;;;;;;;2.30;2.10;;;;;;;9.78;95.69;100606.88;10505077;28;20045;-70
2022/09/20 20:02:43;;;;;;;3.13;2.30;;;;;;;9.60;98.11;100610.72;10505630;28;20041;-70
2022/09/20 20:08:13;;;;;;;3.85;2.33;;;;;;;9.51;99.19;100603.88;10504145;28;20127;-69
2022/09/20 20:19:23;;;;;;;2.63;2.05;;;;;;;9.75;96.55;100628.84;10458190;28;20501;-69
2022/09/20 20:24:54;;;;;;;2.33;1.90;;;;;;;9.89;95.06;100627.72;10458884;28;20104;-68
2022/09/20 20:29:56;;;;;;;1.95;1.75;;;;;;;9.59;98.92;100636.13;10441720;28;20045;-69
2022/09/20 20:34:57;;;;;;;1.90;1.70;;;;;;;9.49;100.00;100636.31;10440653;28;20088;-69
2022/09/20 20:39:59;;;;;;;1.90;1.60;;;;;;;9.70;97.58;100642.94;10458335;28;20506;-69
2022/09/20 20:45:01;;;;;;;3.50;1.52;;;;;;;9.82;96.63;100646.19;10458063;28;20052;-70
2022/09/20 20:50:03;;;;;;;3.00;1.73;;;;;;;9.66;98.27;100650.00;10463864;28;20057;-70
2022/09/20 20:55:05;;;;;;;2.58;1.73;;;;;;;9.56;100.00;100651.94;10484422;28;20564;-70
2022/09/20 21:00:07;;;;;;;1.92;1.67;;;;;;;9.52;100.00;100657.28;10502219;28;20040;-70
2022/09/20 21:05:09;;;;;;;3.58;1.70;;;;;;;9.47;100.00;100659.09;10484536;28;20055;-70
2022/09/20 21:10:11;;;;;;;2.25;1.90;;;;;;;9.44;100.00;100654.78;10502016;28;20045;-70
2022/09/20 21:15:13;;;;;;;2.00;1.85;;;;;;;9.50;100.00;100662.53;10501383;28;20044;-70
2022/09/20 21:20:15;;;;;;;2.13;1.92;;;;;;;9.51;100.00;100668.63;10502501;28;20037;-70
2022/09/20 21:25:16;;;;;;;1.83;1.52;;;;;;;9.49;100.00;100670.44;10501064;28;20448;-71
2022/09/20 21:30:19;;;;;;;2.08;1.88;;;;;;;9.51;100.00;100669.50;10501713;28;20106;-69
2022/09/20 21:35:22;;;;;;;2.28;1.88;;;;;;;9.52;100.00;100673.88;10501732;28;20067;-70
2022/09/20 21:40:24;;;;;;;5.30;2.55;;;;;;;9.52;100.00;100676.50;10482794;28;20090;-70
2022/09/20 21:45:28;;;;;;;4.18;2.13;;;;;;;9.49;100.00;100678.31;10499848;28;20040;-70
2022/09/20 21:50:29;;;;;;;2.13;1.80;;;;;;;9.38;100.00;100675.84;10482955;28;20052;-70
2022/09/20 21:55:32;;;;;;;4.40;2.00;;;;;;;9.53;100.00;100690.50;10482914;28;20052;-70
2022/09/20 22:00:34;;;;;;;2.80;1.83;;;;;;;9.63;100.00;100688.56;10499262;28;20044;-70
2022/09/20 22:05:36;;;;;;;3.42;1.80;;;;;;;9.58;100.00;100693.91;10481463;28;20048;-70
2022/09/20 22:10:38;;;;;;;2.22;1.85;;;;;;;9.59;100.00;100703.50;10499985;28;20468;-70
2022/09/20 22:15:39;;;;;;;1.80;1.70;;;;;;;9.59;100.00;100699.09;10498842;28;20397;-70
2022/09/20 22:20:41;;;;;;;5.25;1.85;;;;;;;9.62;100.00;100702.59;10498471;28;20064;-70
2022/09/20 22:25:42;;;;;;;2.40;1.90;;;;;;;9.63;100.00;100705.19;10480726;28;20044;-69
2022/09/20 22:30:44;;;;;;;2.22;1.85;;;;;;;9.55;100.00;100702.69;10480412;28;20072;-69
2022/09/20 22:35:46;;;;;;;2.63;1.70;;;;;;;9.48;100.00;100701.06;10480949;28;20466;-70
2022/09/20 22:40:52;;;;;;;1.98;1.40;;;;;;;9.53;100.00;100698.38;10498199;28;20047;-70
2022/09/20 22:46:01;;;;;;;3.33;1.50;;;;;;;9.62;100.00;100700.84;10497185;28;20045;-69
2022/09/20 22:51:10;;;;;;;2.25;1.50;;;;;;;9.46;100.00;100701.97;10498071;28;20036;-70
2022/09/20 22:56:15;;;;;;;2.33;1.73;;;;;;;9.40;100.00;100695.06;10498377;28;20074;-69
2022/09/20 23:01:25;;;;;;;1.55;1.38;;;;;;;9.25;100.00;100698.81;10497581;28;20070;-70
2022/09/20 23:06:30;;;;;;;2.53;1.45;;;;;;;9.25;100.00;100697.94;10499157;28;20053;-70
2022/09/20 23:11:32;;;;;;;1.77;1.33;;;;;;;9.45;100.00;100701.09;10497273;28;20405;-69
2022/09/20 23:16:35;;;;;;;1.45;1.33;;;;;;;9.36;100.00;100701.25;10497272;28;20366;-69
2022/09/20 23:21:39;;;;;;;1.23;1.13;;;;;;;9.31;100.00;100701.34;10497233;28;20040;-69
2022/09/20 23:26:42;;;;;;;2.65;1.75;;;;;;;9.32;100.00;100713.56;10497055;28;20466;-69
2022/09/20 23:31:45;;;;;;;3.03;1.98;;;;;;;9.29;100.00;100712.72;10496880;28;20405;-69
2022/09/20 23:36:47;;;;;;;2.05;1.52;;;;;;;9.30;100.00;100709.25;10496836;28;20119;-69
2022/09/20 23:41:49;;;;;;;2.15;1.77;;;;;;;9.35;100.00;100712.66;10478678;28;20047;-69
2022/09/20 23:46:51;;;;;;;2.20;1.58;;;;;;;9.37;100.00;100710.84;10496769;28;20055;-69
2022/09/20 23:51:53;;;;;;;2.10;1.52;;;;;;;9.38;100.00;100711.72;10479147;28;20040;-69
2022/09/20 23:56:55;;;;;;;2.30;1.45;;;;;;;9.47;100.00;100715.06;10500167;28;20498;-70
